sensor_id;sensor_type;location;lat;lon;timestamp;P1;durP1;ratioP1;P2;durP2;ratioP2
12271;SDS011;6198;51.446;6.698;2023-04-15T00:01:34;11.67;;;8.30;;
12271;SDS011;6198;51.446;6.698;2023-04-15T00:04:01;13.57;;;8.70;;
12271;SDS011;6198;51.446;6.698;2023-04-15T00:06:27;11.87;;;8.27;;
12271;SDS011;6198;51.446;6.698;2023-04-15T00:08:53;12.70;;;9.23;;
12271;SDS011;6198;51.446;6.698;2023-04-15T00:11:19;13.83;;;8.50;;
12271;SDS011;6198;51.446;6.698;2023-04-15T00:13:45;11.77;;;8.37;;
12271;SDS011;6198;51.446;6.698;2023-04-15T00:16:11;11.50;;;8.50;;
12271;SDS011;6198;51.446;6.698;2023-04-15T00:18:37;12.77;;;8.17;;
12271;SDS011;6198;51.446;6.698;2023-04-15T00:21:03;11.30;;;8.37;;
12271;SDS011;6198;51.446;6.698;2023-04-15T00:23:29;14.17;;;8.80;;
12271;SDS011;6198;51.446;6.698;2023-04-15T00:25:56;11.10;;;8.07;;
12271;SDS011;6198;51.446;6.698;2023-04-15T00:28:22;12.43;;;7.87;;
12271;SDS011;6198;51.446;6.698;2023-04-15T00:30:48;12.77;;;8.90;;
12271;SDS011;6198;51.446;6.698;2023-04-15T00:33:14;12.63;;;8.07;;
12271;SDS011;6198;51.446;6.698;2023-04-15T00:35:41;11.70;;;8.40;;
12271;SDS011;6198;51.446;6.698;2023-04-15T00:38:07;17.37;;;8.53;;
12271;SDS011;6198;51.446;6.698;2023-04-15T00:40:34;13.23;;;9.17;;
12271;SDS011;6198;51.446;6.698;2023-04-15T00:43:00;17.93;;;8.73;;
12271;SDS011;6198;51.446;6.698;2023-04-15T00:45:26;15.60;;;9.30;;
12271;SDS011;6198;51.446;6.698;2023-04-15T00:47:54;15.07;;;9.37;;
12271;SDS011;6198;51.446;6.698;2023-04-15T00:50:21;11.73;;;9.30;;
12271;SDS011;6198;51.446;6.698;2023-04-15T00:52:47;12.80;;;8.53;;
12271;SDS011;6198;51.446;6.698;2023-04-15T00:55:13;10.83;;;8.10;;
12271;SDS011;6198;51.446;6.698;2023-04-15T00:57:39;14.30;;;8.80;;
12271;SDS011;6198;51.446;6.698;2023-04-15T01:00:05;16.73;;;9.33;;
12271;SDS011;6198;51.446;6.698;2023-04-15T01:02:36;11.17;;;8.53;;
12271;SDS011;6198;51.446;6.698;2023-04-15T01:05:03;13.83;;;9.53;;
12271;SDS011;6198;51.446;6.698;2023-04-15T01:07:29;13.13;;;8.97;;
12271;SDS011;6198;51.446;6.698;2023-04-15T01:09:55;14.83;;;9.23;;
12271;SDS011;6198;51.446;6.698;2023-04-15T01:12:22;12.10;;;9.03;;
12271;SDS011;6198;51.446;6.698;2023-04-15T01:14:49;15.53;;;8.87;;
12271;SDS011;6198;51.446;6.698;2023-04-15T01:17:15;12.17;;;9.63;;
12271;SDS011;6198;51.446;6.698;2023-04-15T01:19:41;14.90;;;7.97;;
12271;SDS011;6198;51.446;6.698;2023-04-15T01:22:07;12.77;;;9.47;;
12271;SDS011;6198;51.446;6.698;2023-04-15T01:24:34;9.60;;;7.90;;
12271;SDS011;6198;51.446;6.698;2023-04-15T01:27:00;15.27;;;9.13;;
12271;SDS011;6198;51.446;6.698;2023-04-15T01:29:26;14.27;;;9.80;;
12271;SDS011;6198;51.446;6.698;2023-04-15T01:31:52;11.33;;;8.30;;
12271;SDS011;6198;51.446;6.698;2023-04-15T01:34:19;10.67;;;8.60;;
12271;SDS011;6198;51.446;6.698;2023-04-15T01:36:45;15.00;;;10.23;;
12271;SDS011;6198;51.446;6.698;2023-04-15T01:39:11;11.37;;;9.77;;
12271;SDS011;6198;51.446;6.698;2023-04-15T01:41:37;12.33;;;10.17;;
12271;SDS011;6198;51.446;6.698;2023-04-15T01:44:04;13.83;;;9.60;;
12271;SDS011;6198;51.446;6.698;2023-04-15T01:46:31;14.17;;;10.30;;
12271;SDS011;6198;51.446;6.698;2023-04-15T01:48:57;16.80;;;10.17;;
12271;SDS011;6198;51.446;6.698;2023-04-15T01:51:23;13.77;;;9.03;;
12271;SDS011;6198;51.446;6.698;2023-04-15T01:53:49;14.93;;;10.30;;
12271;SDS011;6198;51.446;6.698;2023-04-15T01:56:16;15.90;;;9.83;;
12271;SDS011;6198;51.446;6.698;2023-04-15T01:58:42;12.77;;;10.37;;
12271;SDS011;6198;51.446;6.698;2023-04-15T02:01:08;16.33;;;9.57;;
12271;SDS011;6198;51.446;6.698;2023-04-15T02:03:35;13.17;;;10.70;;
12271;SDS011;6198;51.446;6.698;2023-04-15T02:06:01;13.00;;;9.17;;
12271;SDS011;6198;51.446;6.698;2023-04-15T02:08:28;15.80;;;11.57;;
12271;SDS011;6198;51.446;6.698;2023-04-15T02:10:54;11.77;;;9.40;;
12271;SDS011;6198;51.446;6.698;2023-04-15T02:13:20;15.57;;;11.17;;
12271;SDS011;6198;51.446;6.698;2023-04-15T02:15:47;17.57;;;11.00;;
12271;SDS011;6198;51.446;6.698;2023-04-15T02:18:14;11.27;;;8.60;;
12271;SDS011;6198;51.446;6.698;2023-04-15T02:20:40;12.93;;;9.73;;
12271;SDS011;6198;51.446;6.698;2023-04-15T02:23:07;13.87;;;10.97;;
12271;SDS011;6198;51.446;6.698;2023-04-15T02:25:33;16.03;;;10.70;;
12271;SDS011;6198;51.446;6.698;2023-04-15T02:27:59;14.33;;;10.00;;
12271;SDS011;6198;51.446;6.698;2023-04-15T02:30:25;14.23;;;10.33;;
12271;SDS011;6198;51.446;6.698;2023-04-15T02:32:51;14.00;;;10.70;;
12271;SDS011;6198;51.446;6.698;2023-04-15T02:35:17;12.87;;;9.70;;
12271;SDS011;6198;51.446;6.698;2023-04-15T02:37:43;16.07;;;11.80;;
12271;SDS011;6198;51.446;6.698;2023-04-15T02:40:10;12.43;;;10.37;;
12271;SDS011;6198;51.446;6.698;2023-04-15T02:42:36;14.43;;;11.00;;
12271;SDS011;6198;51.446;6.698;2023-04-15T02:45:03;13.67;;;11.33;;
12271;SDS011;6198;51.446;6.698;2023-04-15T02:47:29;12.70;;;11.40;;
12271;SDS011;6198;51.446;6.698;2023-04-15T02:49:55;14.57;;;10.73;;
12271;SDS011;6198;51.446;6.698;2023-04-15T02:52:22;15.57;;;11.13;;
12271;SDS011;6198;51.446;6.698;2023-04-15T02:54:48;14.27;;;10.80;;
12271;SDS011;6198;51.446;6.698;2023-04-15T02:57:14;14.20;;;11.30;;
12271;SDS011;6198;51.446;6.698;2023-04-15T02:59:40;12.67;;;10.47;;
12271;SDS011;6198;51.446;6.698;2023-04-15T03:02:06;14.20;;;11.23;;
12271;SDS011;6198;51.446;6.698;2023-04-15T03:04:32;14.80;;;11.40;;
12271;SDS011;6198;51.446;6.698;2023-04-15T03:06:58;14.97;;;9.80;;
12271;SDS011;6198;51.446;6.698;2023-04-15T03:09:24;13.43;;;9.83;;
12271;SDS011;6198;51.446;6.698;2023-04-15T03:11:50;14.30;;;10.90;;
12271;SDS011;6198;51.446;6.698;2023-04-15T03:14:18;13.73;;;9.47;;
12271;SDS011;6198;51.446;6.698;2023-04-15T03:16:44;9.73;;;7.40;;
12271;SDS011;6198;51.446;6.698;2023-04-15T03:19:11;9.30;;;7.27;;
12271;SDS011;6198;51.446;6.698;2023-04-15T03:21:37;18.33;;;10.03;;
12271;SDS011;6198;51.446;6.698;2023-04-15T03:24:03;15.30;;;10.70;;
12271;SDS011;6198;51.446;6.698;2023-04-15T03:26:30;17.63;;;12.83;;
12271;SDS011;6198;51.446;6.698;2023-04-15T03:28:56;18.57;;;12.20;;
12271;SDS011;6198;51.446;6.698;2023-04-15T03:31:22;15.97;;;11.40;;
12271;SDS011;6198;51.446;6.698;2023-04-15T03:33:48;14.83;;;10.87;;
12271;SDS011;6198;51.446;6.698;2023-04-15T03:36:14;16.83;;;10.67;;
12271;SDS011;6198;51.446;6.698;2023-04-15T03:38:40;16.37;;;10.90;;
12271;SDS011;6198;51.446;6.698;2023-04-15T03:41:07;17.33;;;11.60;;
12271;SDS011;6198;51.446;6.698;2023-04-15T03:43:33;16.93;;;12.07;;
12271;SDS011;6198;51.446;6.698;2023-04-15T03:45:59;14.53;;;11.30;;
12271;SDS011;6198;51.446;6.698;2023-04-15T03:48:25;12.30;;;9.50;;
12271;SDS011;6198;51.446;6.698;2023-04-15T03:50:51;16.47;;;11.17;;
12271;SDS011;6198;51.446;6.698;2023-04-15T03:53:17;18.73;;;11.93;;
12271;SDS011;6198;51.446;6.698;2023-04-15T03:55:43;13.83;;;10.30;;
12271;SDS011;6198;51.446;6.698;2023-04-15T03:58:09;15.80;;;10.10;;
12271;SDS011;6198;51.446;6.698;2023-04-15T04:00:36;15.30;;;10.13;;
12271;SDS011;6198;51.446;6.698;2023-04-15T04:03:02;14.13;;;10.37;;
12271;SDS011;6198;51.446;6.698;2023-04-15T04:05:29;15.97;;;11.23;;
12271;SDS011;6198;51.446;6.698;2023-04-15T04:07:55;16.27;;;10.47;;
12271;SDS011;6198;51.446;6.698;2023-04-15T04:10:20;13.57;;;11.03;;
12271;SDS011;6198;51.446;6.698;2023-04-15T04:12:46;13.53;;;10.17;;
12271;SDS011;6198;51.446;6.698;2023-04-15T04:15:12;15.00;;;11.30;;
12271;SDS011;6198;51.446;6.698;2023-04-15T04:17:38;16.50;;;9.27;;
12271;SDS011;6198;51.446;6.698;2023-04-15T04:20:04;13.67;;;10.27;;
12271;SDS011;6198;51.446;6.698;2023-04-15T04:22:35;12.40;;;10.63;;
12271;SDS011;6198;51.446;6.698;2023-04-15T04:25:01;17.03;;;11.80;;
12271;SDS011;6198;51.446;6.698;2023-04-15T04:27:27;14.20;;;11.60;;
12271;SDS011;6198;51.446;6.698;2023-04-15T04:29:53;12.07;;;10.80;;
12271;SDS011;6198;51.446;6.698;2023-04-15T04:32:19;14.30;;;10.50;;
12271;SDS011;6198;51.446;6.698;2023-04-15T04:34:45;14.97;;;11.33;;
12271;SDS011;6198;51.446;6.698;2023-04-15T04:37:12;13.17;;;9.67;;
12271;SDS011;6198;51.446;6.698;2023-04-15T04:39:38;14.30;;;10.70;;
12271;SDS011;6198;51.446;6.698;2023-04-15T04:42:04;15.87;;;12.47;;
12271;SDS011;6198;51.446;6.698;2023-04-15T04:44:30;16.43;;;12.73;;
12271;SDS011;6198;51.446;6.698;2023-04-15T04:46:56;18.57;;;12.80;;
12271;SDS011;6198;51.446;6.698;2023-04-15T04:49:22;20.30;;;13.67;;
12271;SDS011;6198;51.446;6.698;2023-04-15T04:51:48;19.40;;;13.87;;
12271;SDS011;6198;51.446;6.698;2023-04-15T04:54:14;18.27;;;13.50;;
12271;SDS011;6198;51.446;6.698;2023-04-15T04:56:41;21.33;;;13.00;;
12271;SDS011;6198;51.446;6.698;2023-04-15T04:59:06;18.63;;;14.20;;
12271;SDS011;6198;51.446;6.698;2023-04-15T05:01:33;15.73;;;12.73;;
12271;SDS011;6198;51.446;6.698;2023-04-15T05:03:59;14.83;;;13.03;;
12271;SDS011;6198;51.446;6.698;2023-04-15T05:06:25;14.50;;;12.80;;
12271;SDS011;6198;51.446;6.698;2023-04-15T05:08:54;15.23;;;13.60;;
12271;SDS011;6198;51.446;6.698;2023-04-15T05:11:20;15.03;;;12.90;;
12271;SDS011;6198;51.446;6.698;2023-04-15T05:13:46;17.20;;;12.97;;
12271;SDS011;6198;51.446;6.698;2023-04-15T05:16:12;14.70;;;13.07;;
12271;SDS011;6198;51.446;6.698;2023-04-15T05:18:38;16.23;;;12.90;;
12271;SDS011;6198;51.446;6.698;2023-04-15T05:21:04;15.53;;;13.73;;
12271;SDS011;6198;51.446;6.698;2023-04-15T05:23:30;15.87;;;12.87;;
12271;SDS011;6198;51.446;6.698;2023-04-15T05:25:56;18.17;;;13.10;;
12271;SDS011;6198;51.446;6.698;2023-04-15T05:28:22;15.23;;;12.10;;
12271;SDS011;6198;51.446;6.698;2023-04-15T05:30:48;20.13;;;13.43;;
12271;SDS011;6198;51.446;6.698;2023-04-15T05:33:15;19.20;;;12.73;;
12271;SDS011;6198;51.446;6.698;2023-04-15T05:35:41;14.20;;;12.70;;
12271;SDS011;6198;51.446;6.698;2023-04-15T05:38:07;15.77;;;12.37;;
12271;SDS011;6198;51.446;6.698;2023-04-15T05:40:33;14.70;;;12.27;;
12271;SDS011;6198;51.446;6.698;2023-04-15T05:42:59;16.47;;;12.40;;
12271;SDS011;6198;51.446;6.698;2023-04-15T05:45:25;14.33;;;12.37;;
12271;SDS011;6198;51.446;6.698;2023-04-15T05:47:51;15.17;;;12.50;;
12271;SDS011;6198;51.446;6.698;2023-04-15T05:50:18;17.00;;;13.07;;
12271;SDS011;6198;51.446;6.698;2023-04-15T05:52:44;15.10;;;12.80;;
12271;SDS011;6198;51.446;6.698;2023-04-15T05:55:10;15.97;;;11.10;;
12271;SDS011;6198;51.446;6.698;2023-04-15T05:57:36;15.43;;;12.83;;
12271;SDS011;6198;51.446;6.698;2023-04-15T06:00:03;17.67;;;13.03;;
12271;SDS011;6198;51.446;6.698;2023-04-15T06:02:29;14.20;;;12.70;;
12271;SDS011;6198;51.446;6.698;2023-04-15T06:04:55;14.87;;;13.07;;
12271;SDS011;6198;51.446;6.698;2023-04-15T06:07:21;17.47;;;14.13;;
12271;SDS011;6198;51.446;6.698;2023-04-15T06:09:47;20.83;;;15.17;;
12271;SDS011;6198;51.446;6.698;2023-04-15T06:12:13;16.93;;;14.03;;
12271;SDS011;6198;51.446;6.698;2023-04-15T06:14:40;16.33;;;13.03;;
12271;SDS011;6198;51.446;6.698;2023-04-15T06:17:06;18.83;;;13.00;;
12271;SDS011;6198;51.446;6.698;2023-04-15T06:19:33;17.00;;;13.77;;
12271;SDS011;6198;51.446;6.698;2023-04-15T06:22:00;16.17;;;13.40;;
12271;SDS011;6198;51.446;6.698;2023-04-15T06:24:26;18.97;;;14.57;;
12271;SDS011;6198;51.446;6.698;2023-04-15T06:26:52;20.20;;;15.33;;
12271;SDS011;6198;51.446;6.698;2023-04-15T06:29:18;14.97;;;12.90;;
12271;SDS011;6198;51.446;6.698;2023-04-15T06:31:44;17.07;;;14.10;;
12271;SDS011;6198;51.446;6.698;2023-04-15T06:34:11;18.13;;;14.30;;
12271;SDS011;6198;51.446;6.698;2023-04-15T06:36:37;16.83;;;13.13;;
12271;SDS011;6198;51.446;6.698;2023-04-15T06:39:03;15.07;;;13.43;;
12271;SDS011;6198;51.446;6.698;2023-04-15T06:41:29;18.03;;;12.93;;
12271;SDS011;6198;51.446;6.698;2023-04-15T06:43:55;16.77;;;13.20;;
12271;SDS011;6198;51.446;6.698;2023-04-15T06:46:21;15.43;;;13.30;;
12271;SDS011;6198;51.446;6.698;2023-04-15T06:48:47;15.30;;;12.43;;
12271;SDS011;6198;51.446;6.698;2023-04-15T06:51:13;13.77;;;12.17;;
12271;SDS011;6198;51.446;6.698;2023-04-15T06:53:39;14.57;;;11.73;;
12271;SDS011;6198;51.446;6.698;2023-04-15T06:56:09;14.70;;;13.20;;
12271;SDS011;6198;51.446;6.698;2023-04-15T06:58:35;16.43;;;12.67;;
12271;SDS011;6198;51.446;6.698;2023-04-15T07:01:01;17.03;;;12.13;;
12271;SDS011;6198;51.446;6.698;2023-04-15T07:03:28;15.53;;;13.40;;
12271;SDS011;6198;51.446;6.698;2023-04-15T07:05:54;15.47;;;12.73;;
12271;SDS011;6198;51.446;6.698;2023-04-15T07:08:20;14.23;;;12.60;;
12271;SDS011;6198;51.446;6.698;2023-04-15T07:10:46;18.40;;;13.17;;
12271;SDS011;6198;51.446;6.698;2023-04-15T07:13:12;14.80;;;12.93;;
12271;SDS011;6198;51.446;6.698;2023-04-15T07:15:38;14.37;;;11.80;;
12271;SDS011;6198;51.446;6.698;2023-04-15T07:18:04;14.03;;;11.23;;
12271;SDS011;6198;51.446;6.698;2023-04-15T07:20:30;13.20;;;10.27;;
12271;SDS011;6198;51.446;6.698;2023-04-15T07:22:56;11.43;;;10.23;;
12271;SDS011;6198;51.446;6.698;2023-04-15T07:25:23;12.33;;;9.87;;
12271;SDS011;6198;51.446;6.698;2023-04-15T07:27:49;10.90;;;8.30;;
12271;SDS011;6198;51.446;6.698;2023-04-15T07:30:16;10.30;;;8.80;;
12271;SDS011;6198;51.446;6.698;2023-04-15T07:32:42;9.80;;;7.93;;
12271;SDS011;6198;51.446;6.698;2023-04-15T07:35:08;7.77;;;6.47;;
12271;SDS011;6198;51.446;6.698;2023-04-15T07:37:35;8.07;;;6.87;;
12271;SDS011;6198;51.446;6.698;2023-04-15T07:40:01;6.73;;;6.13;;
12271;SDS011;6198;51.446;6.698;2023-04-15T07:42:30;6.63;;;5.93;;
12271;SDS011;6198;51.446;6.698;2023-04-15T07:44:56;6.73;;;5.40;;
12271;SDS011;6198;51.446;6.698;2023-04-15T07:47:22;5.80;;;3.87;;
12271;SDS011;6198;51.446;6.698;2023-04-15T07:49:48;7.83;;;4.87;;
12271;SDS011;6198;51.446;6.698;2023-04-15T07:52:15;5.47;;;4.90;;
12271;SDS011;6198;51.446;6.698;2023-04-15T07:54:41;4.33;;;3.93;;
12271;SDS011;6198;51.446;6.698;2023-04-15T07:57:07;4.63;;;3.90;;
12271;SDS011;6198;51.446;6.698;2023-04-15T07:59:33;5.53;;;4.00;;
12271;SDS011;6198;51.446;6.698;2023-04-15T08:01:59;6.33;;;4.13;;
12271;SDS011;6198;51.446;6.698;2023-04-15T08:04:25;5.47;;;4.60;;
12271;SDS011;6198;51.446;6.698;2023-04-15T08:06:51;6.03;;;4.53;;
12271;SDS011;6198;51.446;6.698;2023-04-15T08:09:17;4.77;;;4.27;;
12271;SDS011;6198;51.446;6.698;2023-04-15T08:11:43;6.63;;;5.80;;
12271;SDS011;6198;51.446;6.698;2023-04-15T08:14:09;5.90;;;5.03;;
12271;SDS011;6198;51.446;6.698;2023-04-15T08:16:35;8.77;;;4.77;;
12271;SDS011;6198;51.446;6.698;2023-04-15T08:19:01;5.47;;;4.17;;
12271;SDS011;6198;51.446;6.698;2023-04-15T08:21:27;6.97;;;4.80;;
12271;SDS011;6198;51.446;6.698;2023-04-15T08:23:54;5.27;;;4.10;;
12271;SDS011;6198;51.446;6.698;2023-04-15T08:26:21;6.87;;;4.47;;
12271;SDS011;6198;51.446;6.698;2023-04-15T08:28:47;8.03;;;4.83;;
12271;SDS011;6198;51.446;6.698;2023-04-15T08:31:13;5.30;;;4.30;;
12271;SDS011;6198;51.446;6.698;2023-04-15T08:33:40;6.53;;;5.03;;
12271;SDS011;6198;51.446;6.698;2023-04-15T08:36:06;5.23;;;4.73;;
12271;SDS011;6198;51.446;6.698;2023-04-15T08:38:32;8.63;;;4.80;;
12271;SDS011;6198;51.446;6.698;2023-04-15T08:41:03;7.53;;;5.20;;
12271;SDS011;6198;51.446;6.698;2023-04-15T08:43:32;6.00;;;5.03;;
12271;SDS011;6198;51.446;6.698;2023-04-15T08:45:58;5.60;;;4.80;;
12271;SDS011;6198;51.446;6.698;2023-04-15T08:48:28;6.90;;;5.13;;
12271;SDS011;6198;51.446;6.698;2023-04-15T08:50:54;10.80;;;5.37;;
12271;SDS011;6198;51.446;6.698;2023-04-15T08:53:20;7.23;;;4.67;;
12271;SDS011;6198;51.446;6.698;2023-04-15T08:55:48;8.17;;;5.27;;
12271;SDS011;6198;51.446;6.698;2023-04-15T08:58:15;4.63;;;3.83;;
12271;SDS011;6198;51.446;6.698;2023-04-15T09:00:41;5.10;;;4.30;;
12271;SDS011;6198;51.446;6.698;2023-04-15T09:03:07;6.53;;;5.20;;
12271;SDS011;6198;51.446;6.698;2023-04-15T09:05:34;5.60;;;4.53;;
12271;SDS011;6198;51.446;6.698;2023-04-15T09:08:00;5.40;;;4.83;;
12271;SDS011;6198;51.446;6.698;2023-04-15T09:10:27;6.17;;;4.57;;
12271;SDS011;6198;51.446;6.698;2023-04-15T09:12:53;5.60;;;5.10;;
12271;SDS011;6198;51.446;6.698;2023-04-15T09:15:19;5.00;;;4.50;;
12271;SDS011;6198;51.446;6.698;2023-04-15T09:17:45;5.63;;;5.07;;
12271;SDS011;6198;51.446;6.698;2023-04-15T09:20:13;5.90;;;4.80;;
12271;SDS011;6198;51.446;6.698;2023-04-15T09:22:40;5.57;;;4.43;;
12271;SDS011;6198;51.446;6.698;2023-04-15T09:25:24;5.37;;;4.27;;
12271;SDS011;6198;51.446;6.698;2023-04-15T09:27:57;5.23;;;4.33;;
12271;SDS011;6198;51.446;6.698;2023-04-15T09:30:24;5.13;;;4.63;;
12271;SDS011;6198;51.446;6.698;2023-04-15T09:32:51;4.63;;;4.20;;
12271;SDS011;6198;51.446;6.698;2023-04-15T09:35:17;4.23;;;3.83;;
12271;SDS011;6198;51.446;6.698;2023-04-15T09:37:43;4.00;;;3.37;;
12271;SDS011;6198;51.446;6.698;2023-04-15T09:40:09;3.90;;;3.60;;
12271;SDS011;6198;51.446;6.698;2023-04-15T09:42:35;4.40;;;3.70;;
12271;SDS011;6198;51.446;6.698;2023-04-15T09:45:10;4.57;;;3.30;;
12271;SDS011;6198;51.446;6.698;2023-04-15T09:47:36;3.93;;;3.63;;
12271;SDS011;6198;51.446;6.698;2023-04-15T09:50:02;4.93;;;4.20;;
12271;SDS011;6198;51.446;6.698;2023-04-15T09:52:29;5.80;;;4.00;;
12271;SDS011;6198;51.446;6.698;2023-04-15T09:54:58;5.93;;;4.23;;
12271;SDS011;6198;51.446;6.698;2023-04-15T09:57:25;5.87;;;4.70;;
12271;SDS011;6198;51.446;6.698;2023-04-15T09:59:58;6.57;;;4.30;;
12271;SDS011;6198;51.446;6.698;2023-04-15T10:02:24;5.73;;;4.40;;
12271;SDS011;6198;51.446;6.698;2023-04-15T10:04:51;5.83;;;4.63;;
12271;SDS011;6198;51.446;6.698;2023-04-15T10:07:19;6.00;;;4.93;;
12271;SDS011;6198;51.446;6.698;2023-04-15T10:09:47;7.80;;;5.03;;
12271;SDS011;6198;51.446;6.698;2023-04-15T10:12:14;5.67;;;5.10;;
12271;SDS011;6198;51.446;6.698;2023-04-15T10:14:41;6.00;;;5.40;;
12271;SDS011;6198;51.446;6.698;2023-04-15T10:17:08;6.20;;;5.47;;
12271;SDS011;6198;51.446;6.698;2023-04-15T10:19:36;6.30;;;5.77;;
12271;SDS011;6198;51.446;6.698;2023-04-15T10:22:02;6.43;;;5.83;;
12271;SDS011;6198;51.446;6.698;2023-04-15T10:24:31;6.40;;;4.40;;
12271;SDS011;6198;51.446;6.698;2023-04-15T10:26:58;4.83;;;4.33;;
12271;SDS011;6198;51.446;6.698;2023-04-15T10:29:24;6.13;;;4.93;;
12271;SDS011;6198;51.446;6.698;2023-04-15T10:31:53;6.03;;;5.43;;
12271;SDS011;6198;51.446;6.698;2023-04-15T10:34:19;7.67;;;6.70;;
12271;SDS011;6198;51.446;6.698;2023-04-15T10:36:46;5.83;;;5.23;;
12271;SDS011;6198;51.446;6.698;2023-04-15T10:42:09;6.80;;;6.20;;
12271;SDS011;6198;51.446;6.698;2023-04-15T10:44:36;6.50;;;5.90;;
12271;SDS011;6198;51.446;6.698;2023-04-15T10:47:09;6.83;;;5.27;;
12271;SDS011;6198;51.446;6.698;2023-04-15T10:49:42;5.77;;;5.10;;
12271;SDS011;6198;51.446;6.698;2023-04-15T10:52:09;5.60;;;5.10;;
12271;SDS011;6198;51.446;6.698;2023-04-15T10:54:35;5.63;;;5.13;;
12271;SDS011;6198;51.446;6.698;2023-04-15T11:02:23;4.03;;;3.73;;
12271;SDS011;6198;51.446;6.698;2023-04-15T11:05:03;4.63;;;4.23;;
12271;SDS011;6198;51.446;6.698;2023-04-15T11:10:01;6.10;;;5.43;;
12271;SDS011;6198;51.446;6.698;2023-04-15T11:12:34;7.50;;;6.20;;
12271;SDS011;6198;51.446;6.698;2023-04-15T11:15:23;7.40;;;6.70;;
12271;SDS011;6198;51.446;6.698;2023-04-15T11:17:46;6.27;;;5.67;;
12271;SDS011;6198;51.446;6.698;2023-04-15T11:20:15;6.23;;;5.63;;
12271;SDS011;6198;51.446;6.698;2023-04-15T11:22:52;6.17;;;5.57;;
12271;SDS011;6198;51.446;6.698;2023-04-15T11:25:25;4.83;;;4.17;;
12271;SDS011;6198;51.446;6.698;2023-04-15T11:27:51;6.30;;;5.70;;
12271;SDS011;6198;51.446;6.698;2023-04-15T11:30:19;5.60;;;5.10;;
12271;SDS011;6198;51.446;6.698;2023-04-15T11:32:46;5.53;;;4.97;;
12271;SDS011;6198;51.446;6.698;2023-04-15T11:35:12;5.10;;;4.63;;
12271;SDS011;6198;51.446;6.698;2023-04-15T11:37:38;5.20;;;4.40;;
12271;SDS011;6198;51.446;6.698;2023-04-15T11:40:04;4.97;;;4.57;;
12271;SDS011;6198;51.446;6.698;2023-04-15T11:42:31;5.20;;;4.70;;
12271;SDS011;6198;51.446;6.698;2023-04-15T11:45:10;6.40;;;5.67;;
12271;SDS011;6198;51.446;6.698;2023-04-15T11:47:37;6.03;;;4.80;;
12271;SDS011;6198;51.446;6.698;2023-04-15T11:50:19;5.73;;;5.17;;
12271;SDS011;6198;51.446;6.698;2023-04-15T11:52:58;5.00;;;4.50;;
12271;SDS011;6198;51.446;6.698;2023-04-15T11:55:25;4.60;;;4.20;;
12271;SDS011;6198;51.446;6.698;2023-04-15T11:58:24;4.33;;;3.93;;
12271;SDS011;6198;51.446;6.698;2023-04-15T12:00:51;5.37;;;4.87;;
12271;SDS011;6198;51.446;6.698;2023-04-15T12:11:15;4.67;;;4.27;;
12271;SDS011;6198;51.446;6.698;2023-04-15T12:13:48;4.90;;;4.40;;
12271;SDS011;6198;51.446;6.698;2023-04-15T12:16:17;4.37;;;3.47;;
12271;SDS011;6198;51.446;6.698;2023-04-15T12:18:44;4.73;;;4.20;;
12271;SDS011;6198;51.446;6.698;2023-04-15T12:21:11;4.77;;;4.30;;
12271;SDS011;6198;51.446;6.698;2023-04-15T12:23:49;4.50;;;4.10;;
12271;SDS011;6198;51.446;6.698;2023-04-15T12:26:16;5.13;;;4.30;;
12271;SDS011;6198;51.446;6.698;2023-04-15T12:28:42;5.30;;;4.43;;
12271;SDS011;6198;51.446;6.698;2023-04-15T12:31:08;5.33;;;4.63;;
12271;SDS011;6198;51.446;6.698;2023-04-15T12:33:35;4.30;;;3.90;;
12271;SDS011;6198;51.446;6.698;2023-04-15T12:36:01;4.50;;;4.10;;
12271;SDS011;6198;51.446;6.698;2023-04-15T12:38:27;4.60;;;4.17;;
12271;SDS011;6198;51.446;6.698;2023-04-15T12:40:53;5.37;;;3.83;;
12271;SDS011;6198;51.446;6.698;2023-04-15T12:43:19;5.50;;;4.10;;
12271;SDS011;6198;51.446;6.698;2023-04-15T12:45:45;4.10;;;3.70;;
12271;SDS011;6198;51.446;6.698;2023-04-15T12:48:11;4.13;;;3.73;;
12271;SDS011;6198;51.446;6.698;2023-04-15T12:50:37;4.73;;;3.87;;
12271;SDS011;6198;51.446;6.698;2023-04-15T12:53:03;4.50;;;4.03;;
12271;SDS011;6198;51.446;6.698;2023-04-15T12:55:29;6.13;;;4.13;;
12271;SDS011;6198;51.446;6.698;2023-04-15T12:57:55;4.73;;;3.93;;
12271;SDS011;6198;51.446;6.698;2023-04-15T13:00:22;6.03;;;4.03;;
12271;SDS011;6198;51.446;6.698;2023-04-15T13:02:48;5.30;;;3.97;;
12271;SDS011;6198;51.446;6.698;2023-04-15T13:05:14;7.03;;;4.40;;
12271;SDS011;6198;51.446;6.698;2023-04-15T13:07:41;4.27;;;3.83;;
12271;SDS011;6198;51.446;6.698;2023-04-15T13:10:07;4.87;;;4.00;;
12271;SDS011;6198;51.446;6.698;2023-04-15T13:12:33;4.90;;;3.80;;
12271;SDS011;6198;51.446;6.698;2023-04-15T13:15:02;4.67;;;4.00;;
12271;SDS011;6198;51.446;6.698;2023-04-15T13:17:29;4.33;;;3.43;;
12271;SDS011;6198;51.446;6.698;2023-04-15T13:19:54;4.83;;;4.13;;
12271;SDS011;6198;51.446;6.698;2023-04-15T13:22:21;5.90;;;4.13;;
12271;SDS011;6198;51.446;6.698;2023-04-15T13:24:47;4.73;;;3.30;;
12271;SDS011;6198;51.446;6.698;2023-04-15T13:27:13;5.33;;;3.53;;
12271;SDS011;6198;51.446;6.698;2023-04-15T13:29:39;4.50;;;3.53;;
12271;SDS011;6198;51.446;6.698;2023-04-15T13:32:05;7.20;;;3.50;;
12271;SDS011;6198;51.446;6.698;2023-04-15T13:34:31;4.57;;;3.60;;
12271;SDS011;6198;51.446;6.698;2023-04-15T13:36:57;5.07;;;3.33;;
12271;SDS011;6198;51.446;6.698;2023-04-15T13:39:23;3.77;;;3.37;;
12271;SDS011;6198;51.446;6.698;2023-04-15T13:41:49;8.60;;;3.87;;
12271;SDS011;6198;51.446;6.698;2023-04-15T13:44:15;4.27;;;3.80;;
12271;SDS011;6198;51.446;6.698;2023-04-15T13:46:41;4.67;;;3.47;;
12271;SDS011;6198;51.446;6.698;2023-04-15T13:49:07;4.97;;;3.30;;
12271;SDS011;6198;51.446;6.698;2023-04-15T13:51:33;4.00;;;3.60;;
12271;SDS011;6198;51.446;6.698;2023-04-15T13:54:00;4.20;;;3.80;;
12271;SDS011;6198;51.446;6.698;2023-04-15T13:56:27;3.40;;;3.10;;
12271;SDS011;6198;51.446;6.698;2023-04-15T13:58:53;4.57;;;3.70;;
12271;SDS011;6198;51.446;6.698;2023-04-15T14:01:22;8.30;;;3.90;;
12271;SDS011;6198;51.446;6.698;2023-04-15T14:03:48;4.63;;;3.70;;
12271;SDS011;6198;51.446;6.698;2023-04-15T14:06:15;3.70;;;3.40;;
12271;SDS011;6198;51.446;6.698;2023-04-15T14:08:41;5.77;;;3.00;;
12271;SDS011;6198;51.446;6.698;2023-04-15T14:11:07;3.60;;;3.30;;
12271;SDS011;6198;51.446;6.698;2023-04-15T14:13:33;4.73;;;3.20;;
12271;SDS011;6198;51.446;6.698;2023-04-15T14:15:59;6.53;;;3.23;;
12271;SDS011;6198;51.446;6.698;2023-04-15T14:18:25;4.47;;;4.07;;
12271;SDS011;6198;51.446;6.698;2023-04-15T14:20:51;5.00;;;2.73;;
12271;SDS011;6198;51.446;6.698;2023-04-15T14:23:17;5.73;;;4.90;;
12271;SDS011;6198;51.446;6.698;2023-04-15T14:25:43;14.50;;;11.63;;
12271;SDS011;6198;51.446;6.698;2023-04-15T14:28:08;5.60;;;2.90;;
12271;SDS011;6198;51.446;6.698;2023-04-15T14:30:34;7.00;;;2.70;;
12271;SDS011;6198;51.446;6.698;2023-04-15T14:33:00;3.23;;;2.60;;
12271;SDS011;6198;51.446;6.698;2023-04-15T14:35:27;4.90;;;3.53;;
12271;SDS011;6198;51.446;6.698;2023-04-15T14:37:53;4.33;;;3.10;;
12271;SDS011;6198;51.446;6.698;2023-04-15T14:40:19;3.03;;;2.63;;
12271;SDS011;6198;51.446;6.698;2023-04-15T14:42:45;3.40;;;2.93;;
12271;SDS011;6198;51.446;6.698;2023-04-15T14:45:11;3.70;;;2.83;;
12271;SDS011;6198;51.446;6.698;2023-04-15T14:47:37;3.40;;;2.97;;
12271;SDS011;6198;51.446;6.698;2023-04-15T14:50:03;6.60;;;3.43;;
12271;SDS011;6198;51.446;6.698;2023-04-15T14:52:30;5.30;;;3.63;;
12271;SDS011;6198;51.446;6.698;2023-04-15T14:55:06;3.43;;;3.00;;
12271;SDS011;6198;51.446;6.698;2023-04-15T14:57:32;4.87;;;3.60;;
12271;SDS011;6198;51.446;6.698;2023-04-15T14:59:58;3.97;;;3.37;;
12271;SDS011;6198;51.446;6.698;2023-04-15T15:02:24;9.93;;;3.30;;
12271;SDS011;6198;51.446;6.698;2023-04-15T15:04:50;4.23;;;3.10;;
12271;SDS011;6198;51.446;6.698;2023-04-15T15:07:15;4.07;;;3.00;;